^^
Your Local Weather - Clay, NY Station Historical Data
Daily Summary for April 11, 2017 Units:  Metric    English   Both
« Previous Day
Next Day »
Daily Weekly Monthly Yearly Custom
  High: Low: Average:
Temperature: 23.2 °C 10.1 °C 15.7 °C
Dew Point: 13.7 °C 7.6 °C 10.3 °C
Humidity: 93% 43% 73%
Wind Speed: 9.7km/h 0km/h 2.3km/h
Wind Gust: 14.5km/h - -
Wind- - WSW
Pressure: 1018.5 hPa 1013.8 hPa -
Precipitation: 2.79 mm    
Historical Graphs
 
 
Tabular Data for April 11, 2017
Time Temperature Dew Point Pressure Wind Wind Speed Wind Gust Humidity Rainfall Rate (Hourly) solar
00:04 14.2 °C 9 °C 1014.1 hPa Calm     71% 0 mm 0 W/m2
00:10 14.2 °C 8.8 °C 1014.1 hPa Calm     70% 0 mm 0 W/m2
00:16 14.3 °C 8.9 °C 1014.4 hPa Calm     70% 0 mm 0 W/m2
00:22 14.3 °C 8.9 °C 1014.4 hPa Calm     70% 0 mm 0 W/m2
00:34 14.3 °C 8.9 °C 1014.4 hPa Calm     70% 0 mm 0 W/m2
00:40 14.3 °C 8.9 °C 1014.4 hPa Calm     70% 0 mm 0 W/m2
00:46 14.4 °C 9.2 °C 1014.4 hPa Calm     71% 0 mm 0 W/m2
00:52 14.6 °C 9.6 °C 1014.4 hPa Calm     72% 0 mm 0 W/m2
00:58 14.6 °C 9.3 °C 1014.4 hPa Calm     71% 0 mm 0 W/m2
01:03 14.5 °C 8.9 °C 1014.4 hPa Calm     69% 0 mm 0 W/m2
01:09 14.6 °C 9.4 °C 1014.4 hPa Calm     71% 0 mm 0 W/m2
01:16 14.6 °C 9.6 °C 1014.1 hPa Calm   1.6 km/h 72% 0 mm 0 W/m2
01:22 14.4 °C 9.2 °C 1014.1 hPa Calm     71% 0 mm 0 W/m2
01:28 14.5 °C 9.1 °C 1014.1 hPa Calm     70% 0 mm 0 W/m2
01:34 14.6 °C 9.6 °C 1014.1 hPa Calm     72% 0 mm 0 W/m2
01:40 14.5 °C 9.5 °C 1014.1 hPa Calm     72% 0 mm 0 W/m2
01:46 14.5 °C 9.5 °C 1014.1 hPa Calm     72% 0 mm 0 W/m2
01:52 14.5 °C 9.5 °C 1013.8 hPa Calm     72% 0 mm 0 W/m2
01:58 14.6 °C 9.8 °C 1014.1 hPa North 1.6 km/h 3.2 km/h 73% 0 mm 0 W/m2
02:04 14.6 °C 9.8 °C 1013.8 hPa North 1.6 km/h 3.2 km/h 73% 0 mm 0 W/m2
02:10 14.6 °C 9.6 °C 1014.1 hPa North 1.6 km/h 3.2 km/h 72% 0 mm 0 W/m2
02:16 14.7 °C 9.3 °C 1014.1 hPa North 1.6 km/h 8 km/h 70% 0 mm 0 W/m2
02:22 14.8 °C 9.2 °C 1014.1 hPa North 3.2 km/h 4.8 km/h 69% 0 mm 0 W/m2
02:28 14.8 °C 8.9 °C 1014.4 hPa North 1.6 km/h 4.8 km/h 68% 0 mm 0 W/m2
02:34 14.7 °C 9.3 °C 1014.4 hPa North 1.6 km/h 1.6 km/h 70% 0 mm 0 W/m2
02:40 14.4 °C 9.2 °C 1014.1 hPa Calm     71% 0 mm 0 W/m2
02:46 14.2 °C 9.2 °C 1014.1 hPa Calm     72% 0 mm 0 W/m2
02:52 13.9 °C 9 °C 1014.1 hPa Calm     72% 0 mm 0 W/m2
02:58 13.9 °C 9.1 °C 1014.4 hPa Calm     73% 0 mm 0 W/m2
03:03 13.8 °C 9.1 °C 1014.4 hPa Calm     73% 0 mm 0 W/m2
03:10 13.8 °C 9.2 °C 1014.4 hPa Calm     74% 0 mm 0 W/m2
03:16 13.8 °C 9.2 °C 1014.4 hPa Calm     74% 0 mm 0 W/m2
03:22 13.7 °C 9.2 °C 1014.4 hPa Calm     74% 0 mm 0 W/m2
03:28 13.7 °C 9.1 °C 1014.4 hPa Calm     74% 0 mm 0 W/m2
03:34 13.6 °C 9.2 °C 1014.4 hPa Calm     75% 0 mm 0 W/m2
03:39 13.6 °C 9.2 °C 1014.4 hPa Calm     75% 0 mm 0 W/m2
03:46 13.5 °C 9.2 °C 1014.4 hPa Calm     75% 0 mm 0 W/m2
03:52 13.3 °C 8.9 °C 1014.4 hPa Calm     75% 0 mm 0 W/m2
03:58 13 °C 8.9 °C 1014.4 hPa North 1.6 km/h 1.6 km/h 76% 0 mm 0 W/m2
04:03 12.8 °C 8.9 °C 1014.4 hPa Calm   1.6 km/h 77% 0 mm 0 W/m2
04:10 12.8 °C 8.9 °C 1014.1 hPa Calm     77% 0 mm 0 W/m2
04:16 12.7 °C 8.7 °C 1014.4 hPa Calm     77% 0 mm 0 W/m2
04:22 12.4 °C 8.7 °C 1014.4 hPa Calm   1.6 km/h 78% 0 mm 0 W/m2
04:28 12.4 °C 8.8 °C 1014.4 hPa Calm   1.6 km/h 79% 0 mm 0 W/m2
04:34 12.4 °C 8.7 °C 1014.4 hPa Calm     78% 0 mm 0 W/m2
04:40 12.4 °C 8.7 °C 1014.4 hPa Calm     78% 0 mm 0 W/m2
04:46 12.3 °C 8.8 °C 1014.4 hPa Calm     79% 0 mm 0 W/m2
04:52 12.3 °C 8.7 °C 1014.8 hPa Calm     79% 0 mm 0 W/m2
04:58 12.2 °C 8.6 °C 1014.8 hPa Calm     79% 0 mm 0 W/m2
05:04 11.9 °C 8.6 °C 1014.8 hPa Calm     80% 0 mm 0 W/m2
05:10 11.8 °C 8.4 °C 1015.1 hPa Calm     80% 0 mm 0 W/m2
05:16 11.7 °C 8.3 °C 1015.1 hPa Calm     80% 0 mm 0 W/m2
05:22 11.5 °C 8.3 °C 1015.1 hPa Calm     81% 0 mm 0 W/m2
05:28 11.3 °C 8.2 °C 1015.1 hPa Calm     81% 0 mm 0 W/m2
05:34 11.2 °C 8.1 °C 1015.1 hPa Calm     81% 0 mm 0 W/m2
05:40 11.1 °C 8.1 °C 1015.1 hPa Calm     82% 0 mm 0 W/m2
05:52 10.9 °C 8.1 °C 1015.1 hPa Calm     83% 0 mm 0 W/m2
05:58 10.8 °C 8 °C 1015.1 hPa Calm     83% 0 mm 0 W/m2
06:04 10.7 °C 8.1 °C 1014.8 hPa Calm   3.2 km/h 84% 0 mm 0 W/m2
06:10 10.5 °C 7.9 °C 1014.8 hPa Calm     84% 0 mm 0 W/m2
06:16 10.4 °C 7.8 °C 1015.1 hPa Calm     84% 0 mm 0 W/m2
06:22 10.4 °C 7.8 °C 1015.1 hPa Calm     84% 0 mm 0 W/m2
06:28 10.3 °C 7.7 °C 1015.1 hPa Calm     84% 0 mm 5 W/m2
06:34 10.2 °C 7.6 °C 1015.1 hPa Calm     84% 0 mm 9 W/m2
06:40 10.1 °C 7.6 °C 1015.1 hPa Calm     84% 0 mm 16 W/m2
06:45 10.2 °C 7.8 °C 1015.5 hPa Calm     85% 0 mm 25 W/m2
06:52 10.3 °C 7.9 °C 1015.5 hPa North 1.6 km/h 1.6 km/h 85% 0 mm 47 W/m2
06:58 10.4 °C 8.1 °C 1015.5 hPa North 1.6 km/h 1.6 km/h 85% 0 mm 58 W/m2
07:04 10.7 °C 8.3 °C 1015.5 hPa Calm   1.6 km/h 85% 0 mm 56 W/m2
07:10 11.4 °C 8.9 °C 1015.8 hPa North 1.6 km/h 1.6 km/h 85% 0 mm 54 W/m2
07:16 11.9 °C 9.2 °C 1015.8 hPa North 1.6 km/h 1.6 km/h 83% 0 mm 62 W/m2
07:22 12.2 °C 9.1 °C 1015.8 hPa Calm     81% 0 mm 65 W/m2
07:28 12.5 °C 9.2 °C 1016.1 hPa Calm     80% 0 mm 72 W/m2
07:34 12.8 °C 9.4 °C 1016.1 hPa Calm     80% 0 mm 105 W/m2
07:40 13.1 °C 9.3 °C 1016.1 hPa Calm     78% 0 mm 105 W/m2
07:46 13.5 °C 9.6 °C 1016.1 hPa Calm     77% 0 mm 139 W/m2
07:52 14.1 °C 9.9 °C 1016.1 hPa Calm   1.6 km/h 76% 0 mm 195 W/m2
07:58 14.6 °C 9.8 °C 1016.1 hPa Calm   1.6 km/h 73% 0 mm 172 W/m2
08:03 15 °C 10 °C 1016.1 hPa North 1.6 km/h 1.6 km/h 72% 0 mm 236 W/m2
08:10 15.4 °C 10.2 °C 1016.1 hPa North 1.6 km/h 1.6 km/h 71% 0 mm 178 W/m2
08:15 15.9 °C 10.5 °C 1016.1 hPa Calm   3.2 km/h 70% 0 mm 156 W/m2
08:22 16.4 °C 10.2 °C 1016.1 hPa West 1.6 km/h 1.6 km/h 67% 0 mm 107 W/m2
08:28 16.8 °C 10 °C 1015.8 hPa SW 1.6 km/h 4.8 km/h 64% 0 mm 93 W/m2
08:34 17.2 °C 10.3 °C 1015.5 hPa SSW 3.2 km/h 4.8 km/h 64% 0 mm 95 W/m2
08:40 17.4 °C 10.1 °C 1015.5 hPa SSE 3.2 km/h 3.2 km/h 62% 0 mm 97 W/m2
08:46 17.6 °C 10.5 °C 1015.5 hPa SSE 3.2 km/h 3.2 km/h 63% 0 mm 113 W/m2
08:52 17.8 °C 9.9 °C 1015.5 hPa SSW 1.6 km/h 1.6 km/h 60% 0 mm 139 W/m2
08:58 18.1 °C 10.2 °C 1016.1 hPa SW 1.6 km/h 1.6 km/h 60% 0 mm 190 W/m2
09:08 18.9 °C 10.4 °C 1016.1 hPa SW 1.6 km/h 3.2 km/h 58% 0 mm 302 W/m2
09:14 19.5 °C 10.2 °C 1015.8 hPa SW 3.2 km/h 6.4 km/h 55% 0 mm 352 W/m2
09:20 20.1 °C 10.2 °C 1015.8 hPa SSW 4.8 km/h 8 km/h 53% 0 mm 455 W/m2
09:26 20.8 °C 9.9 °C 1015.8 hPa SSW 6.4 km/h 9.7 km/h 50% 0 mm 519 W/m2
09:34 21.2 °C 9.7 °C 1016.1 hPa WSW 6.4 km/h 11.3 km/h 48% 0 mm 555 W/m2
09:40 21.6 °C 10.1 °C 1016.1 hPa SSW 6.4 km/h 11.3 km/h 48% 0 mm 580 W/m2
09:46 21.8 °C 10.3 °C 1015.8 hPa WNW 4.8 km/h 11.3 km/h 48% 0 mm 380 W/m2
09:52 22 °C 9.2 °C 1015.5 hPa West 4.8 km/h 8 km/h 44% 0 mm 628 W/m2
09:58 21.8 °C 9.7 °C 1015.8 hPa WNW 6.4 km/h 8 km/h 46% 0 mm 297 W/m2
10:04 21.7 °C 9.6 °C 1016.1 hPa WNW 4.8 km/h 9.7 km/h 46% 0 mm 577 W/m2
10:10 22.1 °C 9.3 °C 1016.1 hPa WNW 4.8 km/h 4.8 km/h 44% 0 mm 621 W/m2
10:16 22.3 °C 9.8 °C 1016.1 hPa WNW 8 km/h 9.7 km/h 45% 0 mm 559 W/m2
10:22 22.2 °C 9.3 °C 1016.1 hPa WNW 6.4 km/h 6.4 km/h 44% 0 mm 311 W/m2
10:28 22 °C 9.5 °C 1016.1 hPa West 6.4 km/h 6.4 km/h 45% 0 mm 294 W/m2
10:34 22.3 °C 9.4 °C 1016.1 hPa West 6.4 km/h 9.7 km/h 44% 0 mm 578 W/m2
10:39 22.2 °C 9.4 °C 1016.1 hPa West 8 km/h 11.3 km/h 44% 0 mm 471 W/m2
10:46 22 °C 9.5 °C 1016.1 hPa West 9.7 km/h 11.3 km/h 45% 0 mm 469 W/m2
10:52 22.2 °C 10.3 °C 1016.1 hPa WNW 4.8 km/h 8 km/h 47% 0 mm 332 W/m2
10:58 21.9 °C 9.1 °C 1016.1 hPa West 4.8 km/h 9.7 km/h 44% 0 mm 431 W/m2
11:04 21.8 °C 9.7 °C 1016.1 hPa WNW 6.4 km/h 11.3 km/h 46% 0 mm 529 W/m2
11:16 22 °C 8.8 °C 1016.5 hPa WSW 6.4 km/h 14.5 km/h 43% 0 mm 429 W/m2
11:22 22.2 °C 9.7 °C 1016.1 hPa WNW 6.4 km/h 9.7 km/h 45% 0 mm 432 W/m2
11:28 22.4 °C 9.9 °C 1016.5 hPa WSW 4.8 km/h 9.7 km/h 45% 0 mm 496 W/m2
11:34 22.6 °C 10 °C 1016.5 hPa West 4.8 km/h 6.4 km/h 45% 0 mm 417 W/m2
11:40 22.6 °C 10.3 °C 1016.5 hPa WSW 4.8 km/h 4.8 km/h 46% 0 mm 548 W/m2
11:46 22.7 °C 10.4 °C 1016.5 hPa West 3.2 km/h 9.7 km/h 46% 0 mm 640 W/m2
11:52 22.8 °C 9.6 °C 1016.5 hPa WSW 4.8 km/h 11.3 km/h 43% 0 mm 578 W/m2
11:58 22.9 °C 11 °C 1016.5 hPa SW 6.4 km/h 11.3 km/h 47% 0 mm 657 W/m2
12:04 23.2 °C 10.3 °C 1016.5 hPa West 6.4 km/h 8 km/h 44% 0 mm 666 W/m2
12:10 22.9 °C 10.3 °C 1016.5 hPa SW 6.4 km/h 9.7 km/h 45% 0 mm 550 W/m2
12:16 23 °C 10.8 °C 1016.5 hPa WSW 6.4 km/h 14.5 km/h 46% 0 mm 687 W/m2
12:22 22.8 °C 9.9 °C 1016.5 hPa West 8 km/h 11.3 km/h 44% 0 mm 534 W/m2
12:28 22.7 °C 10.8 °C 1016.5 hPa WNW 8 km/h 11.3 km/h 47% 0 mm 707 W/m2
12:34 22.8 °C 10.3 °C 1016.1 hPa West 6.4 km/h 14.5 km/h 45% 0 mm 930 W/m2
12:40 23.1 °C 10.5 °C 1016.1 hPa WSW 6.4 km/h 9.7 km/h 45% 0 mm 540 W/m2
12:46 22.8 °C 9.9 °C 1016.1 hPa West 6.4 km/h 11.3 km/h 44% 0 mm 538 W/m2
12:52 22.7 °C 9.8 °C 1015.8 hPa WSW 6.4 km/h 6.4 km/h 44% 0 mm 631 W/m2
12:58 23 °C 10.8 °C 1015.8 hPa NW 4.8 km/h 6.4 km/h 46% 0 mm 483 W/m2
13:04 22.9 °C 10.1 °C 1016.1 hPa WSW 4.8 km/h 11.3 km/h 44% 0 mm 369 W/m2
13:10 22.8 °C 9.9 °C 1016.1 hPa West 4.8 km/h 4.8 km/h 44% 0 mm 236 W/m2
13:16 22.4 °C 10.2 °C 1016.1 hPa WNW 4.8 km/h 4.8 km/h 46% 0 mm 174 W/m2
13:22 22.2 °C 10.3 °C 1016.1 hPa NW 4.8 km/h 4.8 km/h 47% 0 mm 207 W/m2
13:28 22.1 °C 10.6 °C 1016.1 hPa West 4.8 km/h 9.7 km/h 48% 0 mm 297 W/m2
13:34 22.3 °C 10.4 °C 1016.1 hPa NW 4.8 km/h 8 km/h 47% 0 mm 267 W/m2
13:40 22.3 °C 10.8 °C 1016.5 hPa WNW 6.4 km/h 6.4 km/h 48% 0 mm 246 W/m2
13:46 22.2 °C 10.4 °C 1016.5 hPa NNW 4.8 km/h 8 km/h 47% 0 mm 197 W/m2
13:52 22 °C 10.2 °C 1016.8 hPa NW 6.4 km/h 11.3 km/h 47% 0 mm 56 W/m2
13:58 21.8 °C 10 °C 1017.2 hPa WSW 6.4 km/h 11.3 km/h 47% 0 mm 63 W/m2
14:04 21.7 °C 10.5 °C 1017.2 hPa WNW 4.8 km/h 8 km/h 49% 0 mm 58 W/m2
14:10 21.4 °C 10.9 °C 1017.5 hPa WNW 6.4 km/h 6.4 km/h 51% 0 mm 53 W/m2
14:16 21.1 °C 12.3 °C 1017.5 hPa WNW 3.2 km/h 6.4 km/h 57% 0 mm 63 W/m2
14:22 20.3 °C 12.3 °C 1017.8 hPa WSW 1.6 km/h 4.8 km/h 60% 0 mm 69 W/m2
14:28 19.9 °C 12.2 °C 1018.2 hPa WSW 3.2 km/h 4.8 km/h 61% 0 mm 62 W/m2
14:33 19.7 °C 12 °C 1017.5 hPa WSW 3.2 km/h 8 km/h 61% 0 mm 63 W/m2
14:40 19.7 °C 12.2 °C 1017.5 hPa WSW 3.2 km/h 4.8 km/h 62% 0 mm 74 W/m2
14:46 19.5 °C 12.7 °C 1017.8 hPa WSW 1.6 km/h 4.8 km/h 65% 0 mm 65 W/m2
14:52 19.2 °C 12.5 °C 1018.2 hPa WSW 1.6 km/h 6.4 km/h 65% 0 mm 47 W/m2
14:58 18.9 °C 12.4 °C 1018.2 hPa WSW 4.8 km/h 12.9 km/h 66% 0 mm 90 W/m2
15:04 18.6 °C 12.6 °C 1017.8 hPa SSE 8 km/h 8 km/h 68% 0 mm 146 W/m2
15:10 18.4 °C 12.9 °C 1017.8 hPa SW 6.4 km/h 6.4 km/h 70% 0 mm 102 W/m2
15:16 18.4 °C 13.1 °C 1018.2 hPa West 6.4 km/h 6.4 km/h 71% 0 mm 51 W/m2
15:22 18.2 °C 12.9 °C 1018.2 hPa WNW 4.8 km/h 4.8 km/h 71% 0 mm 30 W/m2
15:28 17.9 °C 12.3 °C 1018.2 hPa NW 6.4 km/h 11.3 km/h 70% 0 mm 44 W/m2
15:34 17.2 °C 12.3 °C 1018.2 hPa WNW 8 km/h 12.9 km/h 73% 0 mm 42 W/m2
15:40 16.3 °C 12.1 °C 1018.2 hPa WNW 8 km/h 8 km/h 76% 0 mm 42 W/m2
15:46 15.7 °C 12.3 °C 1018.2 hPa WNW 8 km/h 11.3 km/h 80% 1.27 mm 39 W/m2
15:52 15.3 °C 12.2 °C 1018.2 hPa NW 6.4 km/h 6.4 km/h 82% 1.78 mm 53 W/m2
15:58 15.1 °C 12.2 °C 1018.2 hPa NW 3.2 km/h 6.4 km/h 83% 1.78 mm 26 W/m2
16:04 14.9 °C 12.3 °C 1018.5 hPa WNW 1.6 km/h 3.2 km/h 84% 1.27 mm 26 W/m2
16:10 14.8 °C 12.2 °C 1018.5 hPa West 1.6 km/h 1.6 km/h 84% 1.02 mm 25 W/m2
16:16 14.8 °C 12.1 °C 1018.2 hPa West 1.6 km/h 3.2 km/h 84% 3.05 mm 19 W/m2
16:22 14.7 °C 12.2 °C 1018.2 hPa WSW 1.6 km/h 3.2 km/h 85% 6.1 mm 21 W/m2
16:34 14.6 °C 12.3 °C 1018.2 hPa SSW 1.6 km/h 3.2 km/h 86% 3.56 mm 23 W/m2
16:40 14.6 °C 12.4 °C 1017.8 hPa SSW 3.2 km/h 3.2 km/h 87% 2.03 mm 33 W/m2
16:46 14.6 °C 12.4 °C 1018.2 hPa SSW 1.6 km/h 3.2 km/h 87% 1.02 mm 46 W/m2
16:52 14.7 °C 12.7 °C 1017.8 hPa Calm   1.6 km/h 88% 0 mm 79 W/m2
16:58 14.8 °C 12.8 °C 1017.8 hPa SSW 1.6 km/h 3.2 km/h 88% 0 mm 95 W/m2
17:04 14.8 °C 13.1 °C 1017.8 hPa SSW 1.6 km/h 3.2 km/h 89% 0 mm 79 W/m2
17:10 14.9 °C 13.1 °C 1017.5 hPa SE 3.2 km/h 3.2 km/h 89% 0 mm 86 W/m2
17:16 15 °C 13.2 °C 1017.8 hPa SE 3.2 km/h 3.2 km/h 89% 0 mm 128 W/m2
17:22 15.2 °C 13.4 °C 1017.5 hPa SE 1.6 km/h 3.2 km/h 89% 0 mm 190 W/m2
17:28 15.5 °C 13.7 °C 1017.5 hPa SSE 3.2 km/h 4.8 km/h 89% 0 mm 163 W/m2
17:34 15.7 °C 13.7 °C 1017.8 hPa SSE 3.2 km/h 6.4 km/h 88% 0 mm 185 W/m2
17:39 15.7 °C 13.6 °C 1017.8 hPa SE 4.8 km/h 4.8 km/h 87% 0 mm 160 W/m2
17:46 15.8 °C 13.3 °C 1017.2 hPa SSE 4.8 km/h 9.7 km/h 85% 0 mm 167 W/m2
17:52 15.9 °C 13.2 °C 1017.5 hPa SSE 6.4 km/h 8 km/h 84% 0 mm 162 W/m2
17:58 16 °C 13.1 °C 1017.2 hPa SSE 6.4 km/h 8 km/h 83% 0 mm 149 W/m2
18:04 16.1 °C 13.2 °C 1017.2 hPa SE 4.8 km/h 6.4 km/h 83% 0 mm 137 W/m2
18:10 16.2 °C 13.1 °C 1017.2 hPa SE 3.2 km/h 4.8 km/h 82% 0 mm 158 W/m2
18:16 16.3 °C 13.4 °C 1017.2 hPa SSE 4.8 km/h 6.4 km/h 83% 0 mm 155 W/m2
18:22 16.3 °C 13.3 °C 1017.2 hPa SE 3.2 km/h 8 km/h 82% 0 mm 151 W/m2
18:28 16.3 °C 13 °C 1017.2 hPa SE 6.4 km/h 11.3 km/h 81% 0 mm 125 W/m2
18:34 16.2 °C 12.9 °C 1017.2 hPa South 6.4 km/h 6.4 km/h 81% 0 mm 93 W/m2
18:39 16.2 °C 12.7 °C 1017.2 hPa SE 4.8 km/h 6.4 km/h 80% 0 mm 81 W/m2
18:46 16.1 °C 12.7 °C 1017.2 hPa South 4.8 km/h 6.4 km/h 80% 0 mm 70 W/m2
18:52 16 °C 12.6 °C 1016.8 hPa SSE 4.8 km/h 4.8 km/h 80% 0 mm 63 W/m2
18:58 15.9 °C 12.4 °C 1016.8 hPa ESE 3.2 km/h 4.8 km/h 80% 0 mm 47 W/m2
19:04 15.7 °C 12.3 °C 1016.8 hPa SE 3.2 km/h 4.8 km/h 80% 0 mm 37 W/m2
19:10 15.6 °C 12.2 °C 1016.8 hPa SE 3.2 km/h 3.2 km/h 80% 0 mm 28 W/m2
19:16 15.5 °C 12.1 °C 1017.2 hPa SE 3.2 km/h 4.8 km/h 80% 0 mm 23 W/m2
19:22 15.4 °C 12 °C 1017.2 hPa SE 1.6 km/h 1.6 km/h 80% 0 mm 16 W/m2
19:28 15.3 °C 12.1 °C 1017.2 hPa Calm   1.6 km/h 81% 0 mm 12 W/m2
19:34 15 °C 12.1 °C 1017.2 hPa Calm     83% 0 mm 7 W/m2
19:40 14.7 °C 11.8 °C 1017.2 hPa Calm     83% 0 mm 0 W/m2
19:46 14.4 °C 11.8 °C 1017.2 hPa Calm     84% 0 mm 0 W/m2
19:52 14.1 °C 11.6 °C 1017.2 hPa Calm     85% 0 mm 0 W/m2
19:58 13.9 °C 11.6 °C 1017.2 hPa Calm     86% 0 mm 0 W/m2
20:04 13.8 °C 11.7 °C 1017.2 hPa Calm     87% 0 mm 0 W/m2
20:10 13.6 °C 11.6 °C 1017.2 hPa Calm     88% 0 mm 0 W/m2
20:16 13.3 °C 11.4 °C 1017.2 hPa Calm     88% 0 mm 0 W/m2
20:22 13.1 °C 11.2 °C 1017.2 hPa Calm     88% 0 mm 0 W/m2
20:28 12.9 °C 11.2 °C 1017.2 hPa Calm     89% 0 mm 0 W/m2
20:33 12.7 °C 10.9 °C 1017.5 hPa Calm     89% 0 mm 0 W/m2
20:40 12.7 °C 11.1 °C 1017.5 hPa Calm     90% 0 mm 0 W/m2
20:46 12.6 °C 11 °C 1017.5 hPa Calm     90% 0 mm 0 W/m2
20:52 12.4 °C 10.8 °C 1017.5 hPa Calm     90% 0 mm 0 W/m2
20:58 12.2 °C 10.6 °C 1017.2 hPa Calm     90% 0 mm 0 W/m2
21:04 12 °C 10.4 °C 1017.2 hPa Calm     90% 0 mm 0 W/m2
21:10 11.8 °C 10.2 °C 1017.5 hPa Calm     90% 0 mm 0 W/m2
21:15 11.7 °C 10.3 °C 1017.5 hPa Calm     91% 0 mm 0 W/m2
21:22 11.6 °C 10.2 °C 1017.5 hPa Calm     91% 0 mm 0 W/m2
21:28 11.5 °C 10.1 °C 1017.2 hPa Calm     91% 0 mm 0 W/m2
21:34 11.3 °C 9.9 °C 1017.2 hPa Calm     91% 0 mm 0 W/m2
21:46 11.1 °C 9.7 °C 1017.2 hPa Calm     91% 0 mm 0 W/m2
21:52 11.1 °C 9.7 °C 1017.2 hPa Calm     91% 0 mm 0 W/m2
21:58 10.9 °C 9.6 °C 1017.2 hPa Calm   1.6 km/h 91% 0 mm 0 W/m2
22:04 10.8 °C 9.4 °C 1017.2 hPa SE 1.6 km/h 1.6 km/h 91% 0 mm 0 W/m2
22:10 10.8 °C 9.6 °C 1017.2 hPa Calm     92% 0 mm 0 W/m2
22:16 10.7 °C 9.5 °C 1017.2 hPa Calm     92% 0 mm 0 W/m2
22:22 10.8 °C 9.6 °C 1017.2 hPa Calm   1.6 km/h 92% 0 mm 0 W/m2
22:28 10.8 °C 9.6 °C 1017.2 hPa Calm   1.6 km/h 92% 0 mm 0 W/m2
22:34 10.8 °C 9.6 °C 1017.2 hPa Calm   1.6 km/h 92% 0 mm 0 W/m2
22:40 10.7 °C 9.4 °C 1016.8 hPa SE 1.6 km/h 3.2 km/h 92% 0 mm 0 W/m2
22:46 10.7 °C 9.4 °C 1017.2 hPa SE 1.6 km/h 3.2 km/h 92% 0 mm 0 W/m2
22:52 10.7 °C 9.5 °C 1017.2 hPa Calm   1.6 km/h 92% 0 mm 0 W/m2
22:58 10.8 °C 9.6 °C 1016.8 hPa Calm   1.6 km/h 92% 0 mm 0 W/m2
23:04 10.7 °C 9.5 °C 1016.8 hPa Calm     92% 0 mm 0 W/m2
23:10 10.7 °C 9.6 °C 1016.8 hPa SE 1.6 km/h 1.6 km/h 93% 0 mm 0 W/m2
23:15 10.9 °C 9.8 °C 1016.8 hPa East 3.2 km/h 8 km/h 93% 0 mm 0 W/m2
23:22 10.8 °C 9.7 °C 1017.2 hPa East 1.6 km/h 1.6 km/h 93% 0 mm 0 W/m2
23:28 10.9 °C 9.8 °C 1016.8 hPa East 1.6 km/h 1.6 km/h 93% 0 mm 0 W/m2
23:34 10.9 °C 9.8 °C 1016.8 hPa Calm   1.6 km/h 93% 0 mm 0 W/m2
23:40 10.9 °C 9.8 °C 1016.8 hPa East 1.6 km/h 3.2 km/h 93% 0 mm 0 W/m2
23:46 11.2 °C 10.1 °C 1016.8 hPa East 1.6 km/h 3.2 km/h 93% 0 mm 0 W/m2
23:52 11.1 °C 9.9 °C 1016.8 hPa Calm   1.6 km/h 93% 0 mm 0 W/m2
23:58 10.9 °C 9.8 °C 1016.8 hPa Calm   1.6 km/h 93% 0 mm 0 W/m2
Country Meadow, Clay, NY, USA
Compliments of Weather Underground - 2 mb